createdAt,value
2019-01-29T00:00:35.865Z,1011.53
2019-01-29T00:04:06.954Z,1011.58
2019-01-29T00:07:37.071Z,1011.64
2019-01-29T00:11:07.110Z,1011.52
2019-01-29T00:14:37.289Z,1011.11
2019-01-29T00:18:07.438Z,1010.97
2019-01-29T00:21:37.676Z,1011.07
2019-01-29T00:25:08.214Z,1011.04
2019-01-29T00:28:38.311Z,1010.85
2019-01-29T00:32:08.449Z,1010.86
2019-01-29T00:35:38.549Z,1010.86
2019-01-29T00:39:08.747Z,1010.79
2019-01-29T00:42:38.875Z,1010.66
2019-01-29T00:46:09.034Z,1010.05
2019-01-29T00:49:39.203Z,1009.98
2019-01-29T00:53:09.254Z,1010.09
2019-01-29T00:56:39.440Z,1010.07
2019-01-29T01:00:13.826Z,1009.83
2019-01-29T01:03:43.885Z,1009.6
2019-01-29T01:07:14.233Z,1009.42
2019-01-29T01:10:44.323Z,1009.76
2019-01-29T01:14:14.270Z,1009.78
2019-01-29T01:17:44.295Z,1010.28
2019-01-29T01:21:14.423Z,1010.36
2019-01-29T01:24:44.451Z,1010.59
2019-01-29T01:28:14.599Z,1010.49
2019-01-29T01:31:44.647Z,1010.67
2019-01-29T01:35:14.721Z,1010.45
2019-01-29T01:38:44.854Z,1010.46
2019-01-29T01:42:14.932Z,1010.31
2019-01-29T01:45:45.130Z,1010.55
2019-01-29T01:49:15.199Z,1010.78
2019-01-29T01:52:45.386Z,1011.03
2019-01-29T01:56:15.506Z,1010.7
2019-01-29T01:59:45.676Z,1011.1
2019-01-29T02:00:17.443Z,1011.07
2019-01-29T02:03:47.531Z,1011.27
2019-01-29T02:07:18.559Z,1011.2
2019-01-29T02:10:48.558Z,1011.39
2019-01-29T02:14:18.628Z,1012.05
2019-01-29T02:17:48.655Z,1012.37
2019-01-29T02:21:19.306Z,1012.87
2019-01-29T02:24:49.401Z,1013.32
2019-01-29T02:28:19.590Z,1013.59
2019-01-29T02:31:49.742Z,1013.8
2019-01-29T02:35:19.816Z,1013.57
2019-01-29T02:38:49.944Z,1012.87
2019-01-29T02:42:20.013Z,1011.8
2019-01-29T02:45:50.133Z,1011.06
2019-01-29T02:49:20.180Z,1010.48
2019-01-29T02:52:50.227Z,1010.59
2019-01-29T02:56:20.386Z,1010.37
2019-01-29T02:59:50.454Z,1010.54
2019-01-29T03:03:20.732Z,1011.01
2019-01-29T03:06:50.871Z,1011.18
2019-01-29T03:10:23.629Z,1011.68
2019-01-29T03:13:53.838Z,1011.98
2019-01-29T03:17:23.850Z,1012.15
2019-01-29T03:20:53.924Z,1012.2
2019-01-29T03:24:24.152Z,1012.12
2019-01-29T03:27:54.214Z,1012.64
2019-01-29T03:31:24.259Z,1013.19
2019-01-29T03:34:54.337Z,1013.81
2019-01-29T03:38:24.366Z,1014.25
2019-01-29T03:41:54.564Z,1014.61
2019-01-29T03:45:24.682Z,1014.39
2019-01-29T03:48:54.764Z,1014.18
2019-01-29T03:52:24.897Z,1014.12
2019-01-29T03:55:55.127Z,1013.84
2019-01-29T03:59:25.176Z,1012.03
2019-01-29T04:00:19.536Z,1011.83
2019-01-29T04:03:49.643Z,1011.64
2019-01-29T04:07:19.791Z,1011.55
2019-01-29T04:10:50.810Z,1011.35
2019-01-29T04:14:20.971Z,1010.93
2019-01-29T04:17:54.967Z,1010.99
2019-01-29T04:21:24.995Z,1010.77
2019-01-29T04:24:55.104Z,1010
2019-01-29T04:28:25.271Z,1009.75
2019-01-29T04:31:55.439Z,1009.8
2019-01-29T04:35:25.568Z,1009.4
2019-01-29T04:38:55.557Z,1009.46
2019-01-29T04:42:25.724Z,1009.21
2019-01-29T04:45:55.792Z,1009.11
2019-01-29T04:49:25.984Z,1009.1
2019-01-29T04:52:56.059Z,1009.12
2019-01-29T04:56:26.177Z,1009.12
2019-01-29T04:59:56.176Z,1008.9
2019-01-29T05:03:26.264Z,1008.91
2019-01-29T05:06:56.362Z,1008.77
2019-01-29T05:10:26.391Z,1008.54
2019-01-29T05:13:57.458Z,1008.36
2019-01-29T05:17:27.518Z,1008.43
2019-01-29T05:20:57.645Z,1008.09
2019-01-29T05:24:27.814Z,1008.28
2019-01-29T05:27:57.892Z,1008.23
2019-01-29T05:31:27.961Z,1008.26
2019-01-29T05:34:58.069Z,1008.39
2019-01-29T05:38:28.130Z,1008.49
2019-01-29T05:41:58.227Z,1008.63
2019-01-29T05:45:28.301Z,1008.8
2019-01-29T05:48:58.471Z,1008.93
2019-01-29T05:52:28.568Z,1008.99
2019-01-29T05:55:58.638Z,1008.61
2019-01-29T05:59:28.736Z,1008.66
2019-01-29T06:00:18.117Z,1008.75
2019-01-29T06:03:48.274Z,1009.36
2019-01-29T06:07:18.404Z,1009.9
2019-01-29T06:10:48.456Z,1010.46
2019-01-29T06:14:19.450Z,1011.41
2019-01-29T06:17:49.517Z,1012.64
2019-01-29T06:21:19.847Z,1013.31
2019-01-29T06:24:50.034Z,1014.19
2019-01-29T06:28:20.232Z,1014.98
2019-01-29T06:31:50.330Z,1015.7
2019-01-29T06:35:20.709Z,1016.47
2019-01-29T06:38:50.796Z,1017.52
2019-01-29T06:42:21.006Z,1018.31
2019-01-29T06:45:51.181Z,1018.69
2019-01-29T06:49:21.268Z,1019.78
2019-01-29T06:52:51.459Z,1020.75
2019-01-29T06:56:21.551Z,1021.56
2019-01-29T06:59:51.687Z,1021.77
2019-01-29T07:03:21.812Z,1022.67
2019-01-29T07:06:51.944Z,1023.15
2019-01-29T07:10:22.393Z,1023.97
2019-01-29T07:13:52.421Z,1025.12
2019-01-29T07:17:27.032Z,1025.92
2019-01-29T07:20:57.148Z,1027.01
2019-01-29T07:24:27.356Z,1027.87
2019-01-29T07:27:57.525Z,1028.46
2019-01-29T07:31:27.734Z,1029.21
2019-01-29T07:34:57.912Z,1029.91
2019-01-29T07:38:28.000Z,1030.42
2019-01-29T07:41:57.999Z,1030.74
2019-01-29T07:45:28.197Z,1031.81
2019-01-29T07:48:58.278Z,1032.97
2019-01-29T07:52:28.265Z,1033.89
2019-01-29T07:55:58.312Z,1033.4
2019-01-29T07:59:33.198Z,1033.68
2019-01-29T08:00:15.471Z,1033.51
2019-01-29T08:03:45.590Z,1033.45
2019-01-29T08:07:15.781Z,1032.97
2019-01-29T08:10:45.827Z,1033.06
2019-01-29T08:14:15.916Z,1033.03
2019-01-29T08:17:47.014Z,1034.05
2019-01-29T08:21:17.183Z,1032.8
2019-01-29T08:24:51.925Z,1033.31
2019-01-29T08:28:26.580Z,1035.03
2019-01-29T08:31:56.702Z,1036.25
2019-01-29T08:35:26.895Z,1035.98
2019-01-29T08:38:56.936Z,1035.94
2019-01-29T08:42:27.094Z,1036.45
2019-01-29T08:45:57.223Z,1036.46
2019-01-29T08:49:27.371Z,1037.14
2019-01-29T08:52:57.400Z,1038.63
2019-01-29T08:56:27.598Z,1038.91
2019-01-29T08:59:57.713Z,1039.07
2019-01-29T09:03:27.806Z,1038.74
2019-01-29T09:06:57.944Z,1038.46
2019-01-29T09:10:28.003Z,1038.48
2019-01-29T09:13:58.072Z,1037.5
2019-01-29T09:17:28.210Z,1037.49
2019-01-29T09:20:59.279Z,1037.16
2019-01-29T09:24:29.368Z,1037.09
2019-01-29T09:27:59.439Z,1036.45
2019-01-29T09:31:29.554Z,1034.77
2019-01-29T09:34:59.754Z,1033.15
2019-01-29T09:38:29.842Z,1032.99
2019-01-29T09:41:59.798Z,1034.02
2019-01-29T09:45:29.938Z,1033.41
2019-01-29T09:49:00.057Z,1034.03
2019-01-29T09:52:30.226Z,1033.56
2019-01-29T09:56:00.284Z,1034.81
2019-01-29T09:59:30.402Z,1035.01
2019-01-29T10:00:18.740Z,1035.08
2019-01-29T10:03:48.742Z,1036.45
2019-01-29T10:07:18.910Z,1036.54
2019-01-29T10:10:49.025Z,1035.06
2019-01-29T10:14:19.231Z,1033.35
2019-01-29T10:17:49.444Z,1032.32
2019-01-29T10:21:19.684Z,1033.4
2019-01-29T10:24:49.787Z,1034.36
2019-01-29T10:28:19.920Z,1034.52
2019-01-29T10:31:50.000Z,1035.91
2019-01-29T10:35:21.170Z,1034.88
2019-01-29T10:38:51.257Z,1033.85
2019-01-29T10:42:21.307Z,1030.95
2019-01-29T10:45:51.454Z,1027.98
2019-01-29T10:49:21.572Z,1027.93
2019-01-29T10:52:52.061Z,1028.02
2019-01-29T10:56:22.175Z,1028.3
2019-01-29T10:59:52.228Z,1030.48
2019-01-29T11:03:22.358Z,1032.99
2019-01-29T11:06:52.458Z,1036.95
2019-01-29T11:10:22.535Z,1039.42
2019-01-29T11:13:52.602Z,1041.32
2019-01-29T11:17:22.731Z,1040.56
2019-01-29T11:20:52.791Z,1037.15
2019-01-29T11:24:23.859Z,1033.35
2019-01-29T11:27:53.977Z,1031.92
2019-01-29T11:31:24.145Z,1032.31
2019-01-29T11:34:54.133Z,1032.12
2019-01-29T11:38:24.203Z,1031.51
2019-01-29T11:41:54.285Z,1030.4
2019-01-29T11:45:27.994Z,1029.11
2019-01-29T11:48:58.099Z,1028.92
2019-01-29T11:52:28.387Z,1029.95
2019-01-29T11:56:04.466Z,1030.19
2019-01-29T11:59:35.154Z,1031.02
2019-01-29T12:00:19.903Z,1031.1
2019-01-29T12:03:49.914Z,1031.35
2019-01-29T12:07:19.981Z,1030.1
2019-01-29T12:10:50.172Z,1028.34
2019-01-29T12:14:20.297Z,1028.61
2019-01-29T12:17:50.366Z,1029.08
2019-01-29T12:21:20.444Z,1028.92
2019-01-29T12:24:51.508Z,1029.01
2019-01-29T12:28:21.653Z,1029.53
2019-01-29T12:31:51.761Z,1029.97
2019-01-29T12:35:23.737Z,1029.88
2019-01-29T12:38:54.057Z,1029.55
2019-01-29T12:42:24.116Z,1029.02
2019-01-29T12:45:54.234Z,1028.75
2019-01-29T12:49:24.282Z,1028.6
2019-01-29T12:53:12.411Z,1027.72
2019-01-29T12:56:42.645Z,1026.36
2019-01-29T13:00:14.229Z,1024.99
2019-01-29T13:03:44.264Z,1023.54
2019-01-29T13:07:14.376Z,1022.74
2019-01-29T13:10:44.584Z,1022.74
2019-01-29T13:14:14.852Z,1022.74
2019-01-29T13:17:45.031Z,1022.63
2019-01-29T13:21:15.129Z,1023.21
2019-01-29T13:24:45.227Z,1023
2019-01-29T13:28:15.524Z,1023.53
2019-01-29T13:31:45.655Z,1023.19
2019-01-29T13:35:16.079Z,1022.81
2019-01-29T13:38:46.273Z,1022.64
2019-01-29T13:42:16.301Z,1022.77
2019-01-29T13:45:47.352Z,1023.36
2019-01-29T13:49:17.585Z,1023.63
2019-01-29T13:52:47.733Z,1023.79
2019-01-29T13:56:17.854Z,1023.88
2019-01-29T13:59:48.045Z,1024.1
2019-01-29T14:00:19.936Z,1024.09
2019-01-29T14:03:49.963Z,1024.33
2019-01-29T14:07:20.183Z,1024.56
2019-01-29T14:10:50.333Z,1024.55
2019-01-29T14:14:20.432Z,1024.69
2019-01-29T14:17:50.533Z,1024.68
2019-01-29T14:21:20.733Z,1024.97
2019-01-29T14:24:50.844Z,1025.2
2019-01-29T14:28:22.043Z,1025.25
2019-01-29T14:31:52.072Z,1025.49
2019-01-29T14:35:22.432Z,1025.29
2019-01-29T14:40:17.701Z,1024.96
2019-01-29T14:43:51.453Z,1024.67
2019-01-29T14:47:21.668Z,1024.43
2019-01-29T14:50:51.736Z,1023.97
2019-01-29T14:54:21.814Z,1023.54
2019-01-29T14:57:52.029Z,1023.41
2019-01-29T15:01:22.302Z,1023.63
2019-01-29T15:04:52.356Z,1023.57
2019-01-29T15:08:22.540Z,1023.86
2019-01-29T15:11:52.741Z,1023.7
2019-01-29T15:15:23.722Z,1023.79
2019-01-29T15:18:58.586Z,1023.87
2019-01-29T15:22:28.704Z,1024.06
2019-01-29T15:25:58.817Z,1024.17
2019-01-29T15:29:29.850Z,1024.2
2019-01-29T15:33:00.011Z,1024.07
2019-01-29T15:36:30.018Z,1023.24
2019-01-29T15:40:00.281Z,1022.77
2019-01-29T15:43:30.245Z,1022.56
2019-01-29T15:47:00.391Z,1022.37
2019-01-29T15:50:31.301Z,1022.4
2019-01-29T15:54:01.468Z,1022.55
2019-01-29T15:57:31.628Z,1022.68
2019-01-29T16:00:19.717Z,1022.86
2019-01-29T16:03:49.778Z,1023.18
2019-01-29T16:07:19.969Z,1023.24
2019-01-29T16:10:50.179Z,1023.58
2019-01-29T16:14:20.288Z,1023.76
2019-01-29T16:17:50.558Z,1023.16
2019-01-29T16:21:20.739Z,1022.79
2019-01-29T16:24:50.942Z,1022.91
2019-01-29T16:28:20.978Z,1022.56
2019-01-29T16:31:51.961Z,1022.07
2019-01-29T16:35:25.103Z,1021.97
2019-01-29T16:38:55.242Z,1021.92
2019-01-29T16:42:25.371Z,1022.14
2019-01-29T16:45:55.482Z,1021.52
2019-01-29T16:49:25.633Z,1019.79
2019-01-29T16:52:56.107Z,1020.06
2019-01-29T16:56:26.176Z,1020.02
2019-01-29T16:59:56.257Z,1019.85
2019-01-29T17:03:26.448Z,1020.21
2019-01-29T17:06:56.475Z,1020.36
2019-01-29T17:10:26.785Z,1020.19
2019-01-29T17:13:56.904Z,1019.86
2019-01-29T17:17:27.104Z,1019.65
2019-01-29T17:20:57.284Z,1019.71
2019-01-29T17:24:27.405Z,1019.93
2019-01-29T17:27:57.504Z,1020.06
2019-01-29T17:31:27.665Z,1020.39
2019-01-29T17:34:58.684Z,1020.41
2019-01-29T17:38:28.824Z,1020.72
2019-01-29T17:41:58.885Z,1021.16
2019-01-29T17:45:32.404Z,1021.07
2019-01-29T17:49:02.724Z,1020.92
2019-01-29T17:52:32.874Z,1020.77
2019-01-29T17:56:03.214Z,1020.72
2019-01-29T17:59:33.365Z,1020.89
2019-01-29T18:00:19.154Z,1020.89
2019-01-29T18:03:49.274Z,1021.44
2019-01-29T18:07:19.504Z,1021.71
2019-01-29T18:10:49.549Z,1021.42
2019-01-29T18:14:19.696Z,1020.92
2019-01-29T18:17:49.724Z,1020.54
2019-01-29T18:21:19.884Z,1020.28
2019-01-29T18:24:49.964Z,1019.91
2019-01-29T18:28:20.004Z,1020.44
2019-01-29T18:31:49.990Z,1019.96
2019-01-29T18:35:21.234Z,1019.05
2019-01-29T18:38:51.463Z,1017.14
2019-01-29T18:42:21.654Z,1016.26
2019-01-29T18:45:51.744Z,1016.16
2019-01-29T18:49:22.054Z,1016.33
2019-01-29T18:52:52.424Z,1017.41
2019-01-29T18:56:22.544Z,1018.52
2019-01-29T18:59:52.683Z,1018.85
2019-01-29T19:03:22.764Z,1019.32
2019-01-29T19:06:52.884Z,1019.71
2019-01-29T19:10:23.043Z,1019.96
2019-01-29T19:13:53.043Z,1019.87
2019-01-29T19:17:23.134Z,1019.78
2019-01-29T19:20:53.072Z,1019.48
2019-01-29T19:24:23.128Z,1019.36
2019-01-29T19:27:53.243Z,1019.18
2019-01-29T19:31:23.394Z,1018.87
2019-01-29T19:34:53.424Z,1018.38
2019-01-29T19:38:23.733Z,1017.83
2019-01-29T19:41:53.833Z,1017.23
2019-01-29T19:45:26.454Z,1017.1
2019-01-29T19:48:56.553Z,1016.41
2019-01-29T19:52:26.974Z,1016.24
2019-01-29T19:55:57.234Z,1015.68
2019-01-29T19:59:27.393Z,1015.73
2019-01-29T20:00:18.704Z,1015.75
2019-01-29T20:03:48.933Z,1015.62
2019-01-29T20:07:19.113Z,1015.54
2019-01-29T20:10:49.263Z,1015.58
2019-01-29T20:14:19.472Z,1015.77
2019-01-29T20:17:50.803Z,1015.43
2019-01-29T20:21:20.883Z,1014.72
2019-01-29T20:24:51.022Z,1014.33
2019-01-29T20:28:21.093Z,1014.34
2019-01-29T20:31:51.192Z,1014.65
2019-01-29T20:35:21.451Z,1014.52
2019-01-29T20:38:52.472Z,1014.67
2019-01-29T20:42:22.722Z,1014.67
2019-01-29T20:45:52.902Z,1014.5
2019-01-29T20:49:22.972Z,1014.13
2019-01-29T20:52:53.002Z,1013.79
2019-01-29T20:56:23.238Z,1013.48
2019-01-29T20:59:53.351Z,1013.21
2019-01-29T21:03:23.512Z,1012.82
2019-01-29T21:06:53.582Z,1012.4
2019-01-29T21:10:23.844Z,1012.12
2019-01-29T21:13:54.002Z,1011.68
2019-01-29T21:17:24.047Z,1010.89
2019-01-29T21:20:57.178Z,1011.29
2019-01-29T21:24:27.606Z,1011.71
2019-01-29T21:27:57.641Z,1012.14
2019-01-29T21:31:27.801Z,1012.32
2019-01-29T21:34:57.810Z,1012.98
2019-01-29T21:38:27.930Z,1013.62
2019-01-29T21:41:58.993Z,1013.52
2019-01-29T21:45:29.131Z,1013.64
2019-01-29T21:48:59.100Z,1013.66
2019-01-29T21:52:29.254Z,1013.69
2019-01-29T21:55:59.311Z,1014.28
2019-01-29T21:59:29.480Z,1014.19
2019-01-29T22:00:19.614Z,1014.19
2019-01-29T22:03:49.669Z,1014.18
2019-01-29T22:07:19.760Z,1013.86
2019-01-29T22:10:49.772Z,1013.26
2019-01-29T22:14:19.934Z,1012.9
2019-01-29T22:17:50.009Z,1013.04
2019-01-29T22:21:20.189Z,1013.29
2019-01-29T22:24:50.279Z,1013.43
2019-01-29T22:28:20.469Z,1013.66
2019-01-29T22:31:50.679Z,1013.88
2019-01-29T22:35:20.998Z,1013.59
2019-01-29T22:38:51.043Z,1013.47
2019-01-29T22:42:21.204Z,1013.93
2019-01-29T22:45:51.269Z,1013.86
2019-01-29T22:49:21.398Z,1013.74
2019-01-29T22:52:51.538Z,1013.52
2019-01-29T22:56:21.628Z,1012.58
2019-01-29T22:59:51.638Z,1012.68
2019-01-29T23:03:26.907Z,1013.02
2019-01-29T23:07:08.212Z,1013.49
2019-01-29T23:10:38.427Z,1013.68
2019-01-29T23:14:08.567Z,1013.88
2019-01-29T23:17:38.597Z,1014.44
2019-01-29T23:21:08.838Z,1014.84
2019-01-29T23:24:38.996Z,1014.94
2019-01-29T23:28:09.097Z,1015.08
2019-01-29T23:31:39.235Z,1015.08
2019-01-29T23:35:09.406Z,1015.14
2019-01-29T23:38:39.394Z,1015.12
2019-01-29T23:42:09.436Z,1014.82
2019-01-29T23:45:40.604Z,1014.85
2019-01-29T23:49:10.656Z,1014.42
2019-01-29T23:52:40.766Z,1014.45
2019-01-29T23:56:10.956Z,1014.36
2019-01-29T23:59:41.006Z,1014.67
